createdAt,value
2019-05-02T00:01:17.289Z,8.78
2019-05-02T00:06:21.792Z,7.78
2019-05-02T00:11:25.770Z,8.85
2019-05-02T00:16:30.111Z,8.40
2019-05-02T00:21:38.150Z,8.25
2019-05-02T00:26:39.581Z,8.08
2019-05-02T00:31:46.828Z,7.85
2019-05-02T00:36:49.084Z,8.03
2019-05-02T00:41:53.028Z,7.17
2019-05-02T00:46:58.526Z,7.33
2019-05-02T00:52:03.135Z,6.42
2019-05-02T00:57:07.166Z,6.97
2019-05-02T01:02:21.316Z,6.50
2019-05-02T01:07:26.768Z,6.97
2019-05-02T01:12:30.875Z,6.45
2019-05-02T01:17:34.815Z,6.05
2019-05-02T01:22:38.739Z,6.15
2019-05-02T01:28:02.299Z,6.95
2019-05-02T01:33:25.658Z,6.67
2019-05-02T01:38:31.723Z,7.78
2019-05-02T01:43:36.712Z,7.55
2019-05-02T01:48:45.733Z,7.35
2019-05-02T01:53:46.218Z,7.65
2019-05-02T01:58:52.985Z,7.53
2019-05-02T02:03:55.721Z,7.97
2019-05-02T02:09:03.422Z,8.90
2019-05-02T02:14:07.256Z,7.28
2019-05-02T02:19:22.078Z,7.72
2019-05-02T02:24:27.572Z,7.12
2019-05-02T02:29:31.486Z,7.53
2019-05-02T02:34:35.436Z,7.87
2019-05-02T02:39:39.350Z,7.55
2019-05-02T02:44:47.590Z,8.00
2019-05-02T02:49:55.685Z,8.55
2019-05-02T02:54:57.126Z,8.78
2019-05-02T03:00:07.626Z,8.50
2019-05-02T03:05:07.221Z,9.73
2019-05-02T03:10:11.184Z,9.88
2019-05-02T03:15:28.172Z,10.32
2019-05-02T03:20:39.981Z,11.33
2019-05-02T03:25:50.091Z,10.20
2019-05-02T03:30:42.924Z,11.97
2019-05-02T03:35:49.015Z,12.55
2019-05-02T03:40:52.325Z,12.90
2019-05-02T03:45:56.201Z,12.58
2019-05-02T03:51:00.073Z,13.05
2019-05-02T03:56:10.566Z,14.18
2019-05-02T04:01:09.485Z,15.43
2019-05-02T04:06:20.286Z,16.00
2019-05-02T04:11:22.088Z,16.48
2019-05-02T04:16:27.031Z,17.02
2019-05-02T04:21:30.869Z,18.12
2019-05-02T04:26:34.789Z,18.25
2019-05-02T04:31:38.710Z,18.80
2019-05-02T04:36:46.378Z,18.80
2019-05-02T04:41:48.701Z,17.00
2019-05-02T04:46:58.995Z,18.73
2019-05-02T04:52:06.161Z,19.02
2019-05-02T04:57:03.920Z,19.40
2019-05-02T05:02:09.063Z,18.98
2019-05-02T05:07:13.353Z,20.05
2019-05-02T05:12:19.046Z,20.35
2019-05-02T05:17:25.116Z,20.32
2019-05-02T05:22:28.455Z,21.62
2019-05-02T05:27:32.384Z,21.70
2019-05-02T05:32:37.572Z,22.85
2019-05-02T05:37:43.345Z,22.77
2019-05-02T05:42:48.119Z,23.80
2019-05-02T05:47:56.518Z,23.50
2019-05-02T05:52:59.565Z,23.18
2019-05-02T05:58:12.322Z,24.15
2019-05-02T06:03:13.734Z,24.45
2019-05-02T06:08:18.338Z,23.57
2019-05-02T06:13:20.142Z,23.52
2019-05-02T06:18:24.028Z,24.70
2019-05-02T06:23:31.021Z,22.70
2019-05-02T06:28:36.187Z,23.65
2019-05-02T06:33:38.982Z,22.93
2019-05-02T06:38:42.856Z,23.15
2019-05-02T06:43:48.273Z,23.50
2019-05-02T06:48:52.578Z,26.10
2019-05-02T06:53:57.508Z,25.65
2019-05-02T06:59:02.963Z,26.05
2019-05-02T07:04:06.838Z,24.77
2019-05-02T07:09:10.863Z,24.87
2019-05-02T07:14:18.546Z,26.55
2019-05-02T07:19:33.922Z,24.92
2019-05-02T07:24:37.897Z,24.47
2019-05-02T07:29:41.781Z,25.00
2019-05-02T07:34:48.242Z,24.95
2019-05-02T07:39:51.172Z,24.07
2019-05-02T07:44:55.119Z,23.90
2019-05-02T07:49:59.006Z,24.20
2019-05-02T07:55:02.892Z,22.45
2019-05-02T08:00:10.029Z,23.87
2019-05-02T08:05:15.541Z,23.65
2019-05-02T08:10:22.169Z,21.80
2019-05-02T08:15:26.930Z,21.77
2019-05-02T08:20:30.863Z,21.85
2019-05-02T08:25:34.808Z,21.60
2019-05-02T08:30:41.762Z,21.23
2019-05-02T08:35:45.870Z,21.25
2019-05-02T08:40:49.845Z,20.12
2019-05-02T08:45:53.817Z,21.48
2019-05-02T08:50:57.745Z,21.45
2019-05-02T08:56:01.701Z,19.65
2019-05-02T09:01:09.246Z,18.95
2019-05-02T09:06:11.181Z,20.50
2019-05-02T09:11:15.893Z,18.50
2019-05-02T09:16:23.761Z,17.95
2019-05-02T09:21:26.768Z,18.77
2019-05-02T09:26:35.990Z,17.12
2019-05-02T09:31:40.880Z,16.73
2019-05-02T09:36:42.186Z,17.57
2019-05-02T09:41:46.070Z,14.60
2019-05-02T09:46:53.126Z,17.62
2019-05-02T09:51:59.677Z,16.20
2019-05-02T09:57:02.712Z,17.02
2019-05-02T10:02:06.561Z,15.80
2019-05-02T10:07:12.111Z,16.35
2019-05-02T10:12:15.958Z,15.25
2019-05-02T10:17:19.836Z,14.95
2019-05-02T10:22:26.522Z,15.78
2019-05-02T10:27:29.262Z,16.20
2019-05-02T10:32:33.128Z,15.63
2019-05-02T10:37:38.165Z,13.15
2019-05-02T10:42:42.840Z,12.13
2019-05-02T10:47:46.724Z,13.38
2019-05-02T10:52:52.564Z,12.73
2019-05-02T10:57:56.655Z,15.00
2019-05-02T11:03:22.405Z,13.68
2019-05-02T11:08:25.966Z,11.43
2019-05-02T11:13:47.930Z,13.20
2019-05-02T11:19:05.750Z,13.00
2019-05-02T11:24:12.301Z,12.58
2019-05-02T11:29:15.198Z,16.65
2019-05-02T11:34:19.110Z,15.53
2019-05-02T11:39:31.638Z,15.18
2019-05-02T11:44:28.635Z,15.20
2019-05-02T11:49:32.521Z,14.38
2019-05-02T11:54:39.167Z,13.88
2019-05-02T11:59:42.490Z,12.37
2019-05-02T12:04:47.445Z,11.10
2019-05-02T12:09:56.872Z,10.98
2019-05-02T12:14:57.584Z,12.30
2019-05-02T12:20:02.118Z,10.45
2019-05-02T12:25:06.368Z,11.20
2019-05-02T12:30:11.773Z,12.20
2019-05-02T12:35:15.943Z,10.50
2019-05-02T12:40:22.868Z,11.50
2019-05-02T12:45:26.790Z,10.05
2019-05-02T12:50:32.199Z,10.00
2019-05-02T12:55:36.180Z,9.58
2019-05-02T13:00:40.107Z,9.65
2019-05-02T13:05:44.655Z,10.80
2019-05-02T13:11:02.142Z,10.32
2019-05-02T13:16:04.038Z,9.38
2019-05-02T13:21:15.198Z,9.38
2019-05-02T13:26:20.017Z,8.35
2019-05-02T13:31:28.247Z,9.10
2019-05-02T13:36:52.857Z,9.33
2019-05-02T13:41:57.447Z,8.25
2019-05-02T13:47:02.724Z,8.85
2019-05-02T13:52:06.892Z,9.93
2019-05-02T13:57:12.151Z,11.30
2019-05-02T14:02:42.481Z,8.93
2019-05-02T14:07:54.122Z,7.90
2019-05-02T14:12:58.439Z,8.45
2019-05-02T14:18:02.562Z,8.85
2019-05-02T14:23:06.907Z,8.18
2019-05-02T14:28:12.798Z,8.80
2019-05-02T14:33:20.523Z,8.53
2019-05-02T14:38:24.417Z,8.03
2019-05-02T14:43:47.823Z,8.40
2019-05-02T14:48:52.446Z,8.18
2019-05-02T14:53:57.435Z,8.23
2019-05-02T14:59:02.647Z,8.28
2019-05-02T15:04:08.238Z,7.92
2019-05-02T15:09:16.613Z,8.15
2019-05-02T15:14:19.935Z,8.35
2019-05-02T15:19:23.596Z,7.92
2019-05-02T15:24:27.648Z,7.75
2019-05-02T15:29:33.037Z,8.10
2019-05-02T15:34:54.801Z,7.50
2019-05-02T15:45:05.744Z,7.10
2019-05-02T15:50:14.759Z,6.25
2019-05-02T15:55:15.592Z,7.53
2019-05-02T16:00:25.702Z,7.17
2019-05-02T16:05:27.946Z,7.70
2019-05-02T16:10:38.373Z,7.35
2019-05-02T16:15:37.607Z,7.37
2019-05-02T16:20:49.345Z,7.65
2019-05-02T16:25:56.938Z,7.92
2019-05-02T16:31:01.608Z,6.92
2019-05-02T16:36:05.748Z,7.55
2019-05-02T16:41:11.349Z,7.28
2019-05-02T16:46:15.392Z,7.37
2019-05-02T16:51:30.757Z,7.70
2019-05-02T16:56:25.003Z,7.78
2019-05-02T17:01:30.190Z,7.33
2019-05-02T17:06:35.676Z,7.58
2019-05-02T17:11:42.003Z,7.47
2019-05-02T17:16:47.086Z,7.70
2019-05-02T17:21:56.337Z,7.67
2019-05-02T17:26:57.170Z,7.50
2019-05-02T17:32:02.170Z,8.38
2019-05-02T17:37:11.332Z,8.48
2019-05-02T17:42:17.014Z,8.15
2019-05-02T17:47:18.562Z,13.28
2019-05-02T17:52:42.724Z,14.78
2019-05-02T17:57:46.715Z,10.38
2019-05-02T18:02:51.748Z,9.13
2019-05-02T18:07:56.012Z,8.78
2019-05-02T18:13:00.120Z,10.05
2019-05-02T18:18:06.817Z,11.60
2019-05-02T18:23:12.222Z,11.97
2019-05-02T18:28:22.269Z,10.15
2019-05-02T18:33:22.643Z,11.90
2019-05-02T18:38:26.938Z,14.15
2019-05-02T18:43:31.520Z,10.40
2019-05-02T18:48:36.536Z,12.73
2019-05-02T18:53:42.370Z,9.58
2019-05-02T18:58:46.469Z,10.05
2019-05-02T19:03:52.465Z,18.40
2019-05-02T19:08:59.245Z,16.70
2019-05-02T19:14:03.277Z,16.52
2019-05-02T19:19:07.282Z,21.45
2019-05-02T19:24:13.163Z,18.40
2019-05-02T19:29:21.290Z,17.42
2019-05-02T19:34:26.865Z,17.80
2019-05-02T19:39:32.288Z,18.27
2019-05-02T19:44:36.469Z,17.95
2019-05-02T19:49:42.551Z,14.83
2019-05-02T19:54:46.389Z,11.65
2019-05-02T19:59:52.364Z,11.12
2019-05-02T20:04:55.854Z,11.15
2019-05-02T20:10:01.818Z,10.43
2019-05-02T20:15:11.988Z,10.50
2019-05-02T20:20:41.929Z,10.70
2019-05-02T20:25:45.945Z,11.12
2019-05-02T20:30:49.855Z,11.15
2019-05-02T20:35:53.850Z,10.48
2019-05-02T20:40:57.824Z,12.78
2019-05-02T20:46:02.573Z,12.95
2019-05-02T20:51:06.777Z,19.02
2019-05-02T20:56:12.406Z,16.82
2019-05-02T21:01:16.439Z,22.22
2019-05-02T21:06:40.943Z,17.12
2019-05-02T21:11:37.497Z,15.40
2019-05-02T21:16:41.478Z,14.90
2019-05-02T21:21:46.006Z,14.38
2019-05-02T21:26:52.481Z,14.23
2019-05-02T21:31:56.349Z,13.98
2019-05-02T21:37:02.523Z,14.23
2019-05-02T21:42:06.638Z,15.40
2019-05-02T21:47:10.575Z,15.55
2019-05-02T21:52:31.848Z,15.93
2019-05-02T21:57:35.845Z,16.20
2019-05-02T22:02:39.783Z,14.95
2019-05-02T22:07:43.709Z,15.65
2019-05-02T22:12:48.828Z,16.07
2019-05-02T22:17:52.756Z,17.10
2019-05-02T22:22:56.628Z,14.90
2019-05-02T22:28:02.023Z,16.02
2019-05-02T22:33:06.034Z,16.07
2019-05-02T22:38:17.510Z,16.57
2019-05-02T22:43:22.143Z,14.68
2019-05-02T22:48:26.181Z,16.65
2019-05-02T22:53:32.120Z,15.13
2019-05-02T22:58:35.602Z,14.87
2019-05-02T23:03:39.486Z,14.58
2019-05-02T23:08:46.322Z,14.53
2019-05-02T23:13:51.764Z,16.62
2019-05-02T23:18:55.803Z,14.05
2019-05-02T23:24:01.670Z,13.78
2019-05-02T23:29:07.307Z,14.28
2019-05-02T23:34:11.190Z,14.70
2019-05-02T23:39:15.060Z,13.62
2019-05-02T23:44:18.982Z,13.68
2019-05-02T23:49:22.906Z,12.60
2019-05-02T23:54:26.827Z,12.18
2019-05-02T23:59:31.798Z,11.57
